Latest Weather Observations for Fawkner Beacon

IDV60801

Issued at 9:52 am EST Thursday 18 July 2024 (issued every 10 minutes, with the page automatically refreshed every 10 minutes)

About weather observations | Map of weather stations | Latest weather observations for VIC | Other Formats
Station Details ID: 086376 Name: FAWKNER BEACON Lat: -37.95 Lon: 144.93 Height: 17.0 m
Data from the previous 72 hours. | See also: Recent months at Fawkner Beacon
Date/Time
EST
Temp
°C
App
Temp
°C
Dew
Point
°C
Rel
Hum
%
Delta-T
°C
Wind Press
QNH
hPa
Press
MSL
hPa
Rain since
9am
mm
Dir  Spd
km/h
Gust
km/h
Spd
kts
Gust
kts
18/09:30am - - - - - WSW 17 22 9 12 - - -
18/09:00am - - - - - W 28 32 15 17 - - -
18/08:30am - - - - - WSW 33 41 18 22 - - -
18/08:00am - - - - - WSW 32 41 17 22 - - -
18/07:30am - - - - - WSW 35 46 19 25 - - -
18/07:00am - - - - - WSW 30 35 16 19 - - -
18/06:30am - - - - - WSW 26 32 14 17 - - -
18/06:00am - - - - - WSW 28 33 15 18 - - -
18/05:30am - - - - - WSW 26 30 14 16 - - -
18/05:00am - - - - - W 30 35 16 19 - - -
18/04:30am - - - - - W 30 35 16 19 - - -
18/04:00am - - - - - WSW 32 41 17 22 - - -
18/03:30am - - - - - W 35 41 19 22 - - -
18/03:00am - - - - - WSW 28 32 15 17 - - -
18/02:30am - - - - - W 30 35 16 19 - - -
18/02:00am - - - - - W 30 35 16 19 - - -
18/01:30am - - - - - W 28 33 15 18 - - -
18/01:00am - - - - - W 26 30 14 16 - - -
18/12:30am - - - - - W 30 35 16 19 - - -
18/12:00am - - - - - WSW 28 35 15 19 - - -
 
Date/Time
EST
Temp
°C
App
Temp
°C
Dew
Point
°C
Rel
Hum
%
Delta-T
°C
Wind Press
QNH
hPa
Press
MSL
hPa
Rain since
9am
mm
Dir  Spd
km/h
Gust
km/h
Spd
kts
Gust
kts
17/11:30pm - - - - - SW 26 33 14 18 - - -
17/11:00pm - - - - - WSW 32 41 17 22 - - -
17/10:30pm - - - - - WSW 30 39 16 21 - - -
17/10:00pm - - - - - WSW 28 33 15 18 - - -
17/09:30pm - - - - - WSW 28 33 15 18 - - -
17/09:00pm - - - - - WSW 30 39 16 21 - - -
17/08:30pm - - - - - SW 22 26 12 14 - - -
17/08:00pm - - - - - SSW 30 39 16 21 - - -
17/07:30pm - - - - - S 32 41 17 22 - - -
17/07:22pm - - - - - SSW 32 41 17 22 - - -
17/07:00pm - - - - - SW 37 44 20 24 - - -
17/06:30pm - - - - - SW 30 39 16 21 - - -
17/06:00pm - - - - - SW 33 41 18 22 - - -
17/05:30pm - - - - - SW 28 32 15 17 - - -
17/05:00pm - - - - - SW 26 30 14 16 - - -
17/04:30pm - - - - - SW 26 32 14 17 - - -
17/04:00pm - - - - - SSW 26 32 14 17 - - -
17/03:30pm - - - - - SW 24 28 13 15 - - -
17/03:00pm - - - - - SW 24 30 13 16 - - -
17/02:30pm - - - - - SW 26 32 14 17 - - -
17/02:00pm - - - - - WSW 17 20 9 11 - - -
17/01:30pm - - - - - SW 17 22 9 12 - - -
17/01:00pm - - - - - SW 15 17 8 9 - - -
17/12:30pm - - - - - WSW 13 17 7 9 - - -
17/12:00pm - - - - - WSW 13 17 7 9 - - -
17/11:30am - - - - - WSW 15 17 8 9 - - -
17/11:00am - - - - - WSW 15 20 8 11 - - -
17/10:30am - - - - - WSW 13 15 7 8 - - -
17/10:00am - - - - - W 15 20 8 11 - - -
17/09:30am - - - - - W 17 20 9 11 - - -
17/09:00am - - - - - W 17 20 9 11 - - -
17/08:30am - - - - - W 17 20 9 11 - - -
17/08:00am - - - - - NW 13 15 7 8 - - -
17/07:30am - - - - - W 17 20 9 11 - - -
17/07:00am - - - - - NW 13 17 7 9 - - -
17/06:30am - - - - - WSW 20 24 11 13 - - -
17/06:00am - - - - - WSW 24 28 13 15 - - -
17/05:30am - - - - - WSW 26 30 14 16 - - -
17/05:00am - - - - - WSW 24 28 13 15 - - -
17/04:30am - - - - - W 24 26 13 14 - - -
17/04:00am - - - - - W 24 26 13 14 - - -
17/03:30am - - - - - WSW 22 26 12 14 - - -
17/03:00am - - - - - WSW 20 24 11 13 - - -
17/02:30am - - - - - WSW 19 24 10 13 - - -
17/02:00am - - - - - SW 17 20 9 11 - - -
17/01:30am - - - - - SSW 15 15 8 8 - - -
17/01:00am - - - - - SSW 17 22 9 12 - - -
17/12:30am - - - - - SW 17 20 9 11 - - -
17/12:00am - - - - - SW 19 22 10 12 - - -
 
Date/Time
EST
Temp
°C
App
Temp
°C
Dew
Point
°C
Rel
Hum
%
Delta-T
°C
Wind Press
QNH
hPa
Press
MSL
hPa
Rain since
9am
mm
Dir  Spd
km/h
Gust
km/h
Spd
kts
Gust
kts
16/11:30pm - - - - - SSW 13 17 7 9 - - -
16/11:00pm - - - - - SSW 15 17 8 9 - - -
16/10:30pm - - - - - SSW 15 20 8 11 - - -
16/10:00pm - - - - - SSW 19 22 10 12 - - -
16/09:30pm - - - - - SSW 20 24 11 13 - - -
16/09:00pm - - - - - SSW 11 15 6 8 - - -
16/08:30pm - - - - - S 15 20 8 11 - - -
16/08:00pm - - - - - SSW 17 20 9 11 - - -
16/07:30pm - - - - - SW 17 20 9 11 - - -
16/07:00pm - - - - - SSW 15 17 8 9 - - -
16/06:30pm - - - - - SSW 17 20 9 11 - - -
16/06:00pm - - - - - SW 17 20 9 11 - - -
16/05:30pm - - - - - SSW 22 24 12 13 - - -
16/05:00pm - - - - - SSW 19 22 10 12 - - -
16/04:30pm - - - - - SSW 19 22 10 12 - - -
16/04:00pm - - - - - SSW 17 20 9 11 - - -
16/03:30pm - - - - - SSW 22 26 12 14 - - -
16/03:00pm - - - - - SSW 24 28 13 15 - - -
16/02:30pm - - - - - SSW 24 28 13 15 - - -
16/02:00pm - - - - - SSW 24 28 13 15 - - -
16/01:30pm - - - - - SSW 24 28 13 15 - - -
16/01:00pm - - - - - SSW 24 28 13 15 - - -
16/12:30pm - - - - - SSW 22 24 12 13 - - -
16/12:00pm - - - - - SSW 22 24 12 13 - - -
16/11:30am - - - - - SSW 20 24 11 13 - - -
16/11:00am - - - - - SSW 22 24 12 13 - - -
16/10:30am - - - - - SSW 22 26 12 14 - - -
16/10:00am - - - - - SSW 20 22 11 12 - - -
16/09:30am - - - - - SSW 22 24 12 13 - - -
16/09:00am - - - - - SSW 22 26 12 14 - - -
16/08:30am - - - - - S 24 28 13 15 - - -
16/08:00am - - - - - SSW 28 30 15 16 - - -
16/07:30am - - - - - S 28 33 15 18 - - -
16/07:00am - - - - - S 30 35 16 19 - - -
16/06:30am - - - - - S 35 41 19 22 - - -
16/06:00am - - - - - S 30 33 16 18 - - -
16/05:30am - - - - - S 30 33 16 18 - - -
16/05:00am - - - - - S 32 39 17 21 - - -
16/04:30am - - - - - S 28 32 15 17 - - -
16/04:00am - - - - - S 30 35 16 19 - - -
16/03:30am - - - - - S 28 33 15 18 - - -
16/03:00am - - - - - S 28 32 15 17 - - -
16/02:30am - - - - - S 32 41 17 22 - - -
16/02:00am - - - - - S 33 44 18 24 - - -
16/01:30am - - - - - SSW 43 48 23 26 - - -
16/01:00am - - - - - SSW 39 46 21 25 - - -
16/12:30am - - - - - SSW 41 52 22 28 - - -
16/12:00am - - - - - SW 50 70 27 38 - - -
 
Date/Time
EST
Temp
°C
App
Temp
°C
Dew
Point
°C
Rel
Hum
%
Delta-T
°C
Wind Press
QNH
hPa
Press
MSL
hPa
Rain since
9am
mm
Dir  Spd
km/h
Gust
km/h
Spd
kts
Gust
kts
15/11:51pm - - - - - WSW 46 70 25 38 - - -
15/11:30pm - - - - - WSW 46 57 25 31 - - -
15/11:00pm - - - - - W 54 65 29 35 - - -
15/10:30pm - - - - - WSW 50 59 27 32 - - -
15/10:00pm - - - - - W 52 65 28 35 - - -
15/09:30pm - - - - - W 52 67 28 36 - - -
15/09:00pm - - - - - W 52 63 28 34 - - -
15/08:30pm - - - - - W 50 63 27 34 - - -
15/08:00pm - - - - - W 52 61 28 33 - - -
15/07:30pm - - - - - W 50 61 27 33 - - -
15/07:00pm - - - - - W 48 61 26 33 - - -
15/06:30pm - - - - - W 48 63 26 34 - - -
15/06:00pm - - - - - W 48 57 26 31 - - -
15/05:30pm - - - - - W 46 59 25 32 - - -
15/05:00pm - - - - - W 44 54 24 29 - - -
15/04:30pm - - - - - W 46 57 25 31 - - -
15/04:00pm - - - - - W 46 54 25 29 - - -
15/03:30pm - - - - - W 46 57 25 31 - - -
15/03:00pm - - - - - W 48 57 26 31 - - -
15/02:30pm - - - - - W 46 59 25 32 - - -
15/02:00pm - - - - - W 37 46 20 25 - - -
15/01:30pm - - - - - W 46 59 25 32 - - -
15/01:00pm - - - - - W 43 50 23 27 - - -
15/12:30pm - - - - - WSW 44 57 24 31 - - -
15/12:00pm - - - - - W 44 52 24 28 - - -
15/11:30am - - - - - W 44 52 24 28 - - -
15/11:00am - - - - - W 43 50 23 27 - - -
15/10:30am - - - - - WSW 43 50 23 27 - - -
15/10:00am - - - - - W 39 48 21 26 - - -

Other formats

Comma delimited format used in spreadsheet applications
http://www.bom.gov.au/fwo/IDV60801/IDV60801.95872.axf

JavaScript Object Notation format (JSON) in row-major order
http://www.bom.gov.au/fwo/IDV60801/IDV60801.95872.json

Data quality

Most of these data are generated automatically and are frequently updated. Quality checks on data are not normally performed. It is possible for incorrect values to appear. Refer to information at About Latest Weather Observations and please check the disclaimer before using these data.